DLH5TV EDDF-EDDL
Flight info
| Callsign | DLH5TV |
|---|---|
| Flight time | 0h 38m |
| Altitude | 24000 |
| Route | MARUN3W/25C MARUN Y152 ARPEG Z850 ADEMI T854 DOMUX DOMUX1A |
| Aircraft | A320/M-SDE2E3FGIJ1LORWXYZ/HB1 |
Departure
| Time | 2026-05-07 18:08 |
|---|---|
| Airport | Frankfurt Main Airport (EDDF) |
Arrival
| Time | 2026-05-07 18:47 |
|---|---|
| Airport | Düsseldorf Airport (EDDL) |
| Time | Latitude | Longitude | Altitude | Speed | Heading |
|---|---|---|---|---|---|
| 2026-05-07 17:51 | 50.04398 | 8.57033 | 352 ft | 0 kts | 160° |
| 2026-05-07 18:03 | 50.04394 | 8.57035 | 352 ft | 1 kts | 160° |
| 2026-05-07 18:04 | 50.04378 | 8.57044 | 352 ft | 3 kts | 160° |
| 2026-05-07 18:04 | 50.04346 | 8.57063 | 352 ft | 6 kts | 160° |
| 2026-05-07 18:04 | 50.04332 | 8.57125 | 352 ft | 8 kts | 69° |
| 2026-05-07 18:04 | 50.04354 | 8.57213 | 352 ft | 9 kts | 70° |
| 2026-05-07 18:05 | 50.04379 | 8.57319 | 352 ft | 11 kts | 70° |
| 2026-05-07 18:05 | 50.04406 | 8.57430 | 352 ft | 7 kts | 70° |
| 2026-05-07 18:05 | 50.04417 | 8.57478 | 352 ft | 0 kts | 70° |
| 2026-05-07 18:05 | 50.04420 | 8.57494 | 352 ft | 2 kts | 70° |
| 2026-05-07 18:06 | 50.04428 | 8.57525 | 352 ft | 4 kts | 70° |
| 2026-05-07 18:06 | 50.04437 | 8.57581 | 352 ft | 6 kts | 93° |
| 2026-05-07 18:06 | 50.04404 | 8.57644 | 352 ft | 9 kts | 149° |
| 2026-05-07 18:06 | 50.04339 | 8.57687 | 352 ft | 11 kts | 159° |
| 2026-05-07 18:07 | 50.04281 | 8.57701 | 352 ft | 6 kts | 219° |
| 2026-05-07 18:07 | 50.04272 | 8.57678 | 352 ft | 0 kts | 250° |
| 2026-05-07 18:07 | 50.04270 | 8.57671 | 352 ft | 2 kts | 250° |
| 2026-05-07 18:07 | 50.04177 | 8.57276 | 352 ft | 77 kts | 250° |
| 2026-05-07 18:08 | 50.03907 | 8.56146 | 352 ft | 143 kts | 250° |
| 2026-05-07 18:08 | 50.03511 | 8.54491 | 590 ft | 173 kts | 249° |
| 2026-05-07 18:08 | 50.03085 | 8.52753 | 1295 ft | 175 kts | 250° |
| 2026-05-07 18:08 | 50.02642 | 8.51015 | 2040 ft | 177 kts | 248° |
| 2026-05-07 18:09 | 50.01996 | 8.49419 | 2602 ft | 184 kts | 227° |
| 2026-05-07 18:09 | 50.00918 | 8.48279 | 3091 ft | 196 kts | 204° |
| 2026-05-07 18:09 | 49.99580 | 8.47752 | 3732 ft | 199 kts | 190° |
| 2026-05-07 18:09 | 49.98236 | 8.47473 | 4436 ft | 198 kts | 188° |
| 2026-05-07 18:10 | 49.96865 | 8.47211 | 5074 ft | 200 kts | 189° |
| 2026-05-07 18:10 | 49.95505 | 8.46780 | 5682 ft | 202 kts | 196° |
| 2026-05-07 18:10 | 49.94161 | 8.46190 | 6297 ft | 205 kts | 198° |
| 2026-05-07 18:10 | 49.92788 | 8.45544 | 6936 ft | 207 kts | 203° |
| 2026-05-07 18:11 | 49.91613 | 8.44374 | 7570 ft | 205 kts | 229° |
| 2026-05-07 18:11 | 49.91047 | 8.43209 | 7974 ft | 205 kts | 244° |
| 2026-05-07 18:11 | 49.90607 | 8.40258 | 8525 ft | 223 kts | 275° |
| 2026-05-07 18:11 | 49.91048 | 8.37858 | 8748 ft | 245 kts | 302° |
| 2026-05-07 18:12 | 49.92230 | 8.35926 | 9296 ft | 257 kts | 329° |
| 2026-05-07 18:12 | 49.93854 | 8.34767 | 10081 ft | 261 kts | 336° |
| 2026-05-07 18:12 | 49.95558 | 8.33692 | 10684 ft | 272 kts | 336° |
| 2026-05-07 18:12 | 49.97378 | 8.32531 | 11110 ft | 290 kts | 336° |
| 2026-05-07 18:13 | 49.99283 | 8.31302 | 11594 ft | 304 kts | 335° |
| 2026-05-07 18:13 | 50.01257 | 8.30021 | 12307 ft | 309 kts | 335° |
| 2026-05-07 18:13 | 50.03267 | 8.28763 | 13064 ft | 313 kts | 341° |
| 2026-05-07 18:13 | 50.05429 | 8.28346 | 13764 ft | 319 kts | 2° |
| 2026-05-07 18:14 | 50.07570 | 8.29094 | 14505 ft | 322 kts | 16° |
| 2026-05-07 18:14 | 50.09713 | 8.30230 | 15211 ft | 326 kts | 17° |
| 2026-05-07 18:14 | 50.11839 | 8.31386 | 15873 ft | 329 kts | 17° |
| 2026-05-07 18:14 | 50.14016 | 8.32558 | 16539 ft | 332 kts | 17° |
| 2026-05-07 18:15 | 50.16213 | 8.33728 | 17182 ft | 335 kts | 17° |
| 2026-05-07 18:15 | 50.18435 | 8.34816 | 17808 ft | 337 kts | 9° |
| 2026-05-07 18:15 | 50.20747 | 8.35126 | 18430 ft | 338 kts | 358° |
| 2026-05-07 18:15 | 50.23113 | 8.35089 | 19046 ft | 341 kts | 357° |
| 2026-05-07 18:16 | 50.25468 | 8.35072 | 19647 ft | 344 kts | 358° |
| 2026-05-07 18:16 | 50.27891 | 8.35127 | 20231 ft | 347 kts | 359° |
| 2026-05-07 18:16 | 50.30280 | 8.35109 | 20791 ft | 349 kts | 356° |
| 2026-05-07 18:16 | 50.32724 | 8.34916 | 21353 ft | 352 kts | 355° |
| 2026-05-07 18:17 | 50.35198 | 8.34703 | 21898 ft | 354 kts | 355° |
| 2026-05-07 18:17 | 50.37657 | 8.34516 | 22426 ft | 358 kts | 355° |
| 2026-05-07 18:17 | 50.40154 | 8.34346 | 22953 ft | 360 kts | 355° |
| 2026-05-07 18:17 | 50.42635 | 8.34191 | 23477 ft | 363 kts | 356° |
| 2026-05-07 18:18 | 50.45168 | 8.34041 | 23920 ft | 365 kts | 356° |
| 2026-05-07 18:18 | 50.47682 | 8.33894 | 24038 ft | 366 kts | 356° |
| 2026-05-07 18:18 | 50.50229 | 8.33746 | 24040 ft | 366 kts | 356° |
| 2026-05-07 18:18 | 50.52770 | 8.33598 | 24043 ft | 366 kts | 356° |
| 2026-05-07 18:19 | 50.55320 | 8.33448 | 24046 ft | 366 kts | 356° |
| 2026-05-07 18:19 | 50.57885 | 8.33296 | 24047 ft | 366 kts | 355° |
| 2026-05-07 18:19 | 50.60433 | 8.33143 | 24045 ft | 366 kts | 356° |
| 2026-05-07 18:19 | 50.62967 | 8.32991 | 24048 ft | 367 kts | 356° |
| 2026-05-07 18:20 | 50.65527 | 8.32839 | 24046 ft | 367 kts | 356° |
| 2026-05-07 18:20 | 50.68057 | 8.32688 | 24047 ft | 367 kts | 356° |
| 2026-05-07 18:20 | 50.70614 | 8.32536 | 24052 ft | 367 kts | 356° |
| 2026-05-07 18:20 | 50.73160 | 8.32385 | 24052 ft | 367 kts | 356° |
| 2026-05-07 18:21 | 50.75712 | 8.32233 | 24051 ft | 367 kts | 356° |
| 2026-05-07 18:21 | 50.78280 | 8.32080 | 24050 ft | 368 kts | 355° |
| 2026-05-07 18:21 | 50.80848 | 8.31927 | 24050 ft | 368 kts | 356° |
| 2026-05-07 18:21 | 50.83390 | 8.31773 | 24054 ft | 368 kts | 356° |
| 2026-05-07 18:22 | 50.85929 | 8.31619 | 23864 ft | 367 kts | 356° |
| 2026-05-07 18:22 | 50.87622 | 8.31516 | 23628 ft | 363 kts | 355° |
| 2026-05-07 18:22 | 50.90979 | 8.31310 | 22949 ft | 361 kts | 355° |
| 2026-05-07 18:22 | 50.93475 | 8.31156 | 22442 ft | 359 kts | 356° |
| 2026-05-07 18:23 | 50.95952 | 8.31003 | 21965 ft | 357 kts | 356° |
| 2026-05-07 18:23 | 50.98416 | 8.30852 | 21504 ft | 354 kts | 355° |
| 2026-05-07 18:23 | 51.00842 | 8.30430 | 21020 ft | 350 kts | 345° |
| 2026-05-07 18:23 | 51.03122 | 8.29293 | 20599 ft | 344 kts | 334° |
| 2026-05-07 18:24 | 51.05260 | 8.27567 | 20214 ft | 343 kts | 329° |
| 2026-05-07 18:24 | 51.07326 | 8.25702 | 19819 ft | 341 kts | 328° |
| 2026-05-07 18:24 | 51.09368 | 8.23841 | 19428 ft | 338 kts | 328° |
| 2026-05-07 18:24 | 51.11407 | 8.22005 | 19012 ft | 335 kts | 329° |
| 2026-05-07 18:25 | 51.13455 | 8.20176 | 18630 ft | 332 kts | 329° |
| 2026-05-07 18:25 | 51.15450 | 8.18396 | 18252 ft | 331 kts | 329° |
| 2026-05-07 18:25 | 51.17452 | 8.16608 | 17869 ft | 329 kts | 329° |
| 2026-05-07 18:25 | 51.19450 | 8.14823 | 17483 ft | 328 kts | 329° |
| 2026-05-07 18:26 | 51.21418 | 8.13062 | 17109 ft | 327 kts | 329° |
| 2026-05-07 18:26 | 51.23404 | 8.11283 | 16734 ft | 325 kts | 329° |
| 2026-05-07 18:26 | 51.25377 | 8.09514 | 16351 ft | 324 kts | 329° |
| 2026-05-07 18:26 | 51.27316 | 8.07773 | 15986 ft | 322 kts | 329° |
| 2026-05-07 18:27 | 51.29263 | 8.06023 | 15673 ft | 321 kts | 329° |
| 2026-05-07 18:27 | 51.31196 | 8.04287 | 15330 ft | 320 kts | 329° |
| 2026-05-07 18:27 | 51.33136 | 8.02540 | 15014 ft | 318 kts | 329° |
| 2026-05-07 18:27 | 51.34399 | 8.01402 | 14842 ft | 317 kts | 329° |
| 2026-05-07 18:28 | 51.36947 | 7.99104 | 14502 ft | 315 kts | 329° |
| 2026-05-07 18:28 | 51.38855 | 7.97382 | 14245 ft | 314 kts | 329° |
| 2026-05-07 18:28 | 51.40756 | 7.95665 | 14069 ft | 313 kts | 329° |
| 2026-05-07 18:28 | 51.42652 | 7.93956 | 14060 ft | 313 kts | 329° |
| 2026-05-07 18:29 | 51.44554 | 7.92233 | 14060 ft | 313 kts | 327° |
| 2026-05-07 18:29 | 51.46178 | 7.90005 | 13846 ft | 311 kts | 306° |
| 2026-05-07 18:29 | 51.47126 | 7.86955 | 13598 ft | 309 kts | 284° |
| 2026-05-07 18:29 | 51.47309 | 7.83517 | 13353 ft | 308 kts | 263° |
| 2026-05-07 18:30 | 51.46735 | 7.80253 | 13109 ft | 308 kts | 250° |
| 2026-05-07 18:30 | 51.45951 | 7.77056 | 12846 ft | 307 kts | 249° |
| 2026-05-07 18:30 | 51.45152 | 7.73881 | 12594 ft | 306 kts | 249° |
| 2026-05-07 18:30 | 51.44357 | 7.70742 | 12346 ft | 305 kts | 249° |
| 2026-05-07 18:31 | 51.43553 | 7.67575 | 12093 ft | 304 kts | 249° |
| 2026-05-07 18:31 | 51.42765 | 7.64474 | 11737 ft | 301 kts | 249° |
| 2026-05-07 18:31 | 51.41977 | 7.61381 | 11318 ft | 300 kts | 249° |
| 2026-05-07 18:31 | 51.41184 | 7.58279 | 11067 ft | 300 kts | 249° |
| 2026-05-07 18:32 | 51.40397 | 7.55196 | 10813 ft | 300 kts | 249° |
| 2026-05-07 18:32 | 51.39613 | 7.52121 | 10562 ft | 299 kts | 249° |
| 2026-05-07 18:32 | 51.38823 | 7.49025 | 10311 ft | 298 kts | 249° |
| 2026-05-07 18:32 | 51.38042 | 7.45966 | 10096 ft | 297 kts | 249° |
| 2026-05-07 18:33 | 51.37267 | 7.42929 | 10067 ft | 297 kts | 249° |
| 2026-05-07 18:33 | 51.36485 | 7.39871 | 10061 ft | 297 kts | 249° |
| 2026-05-07 18:33 | 51.35704 | 7.36821 | 10065 ft | 297 kts | 249° |
| 2026-05-07 18:33 | 51.34914 | 7.33730 | 10064 ft | 296 kts | 248° |
| 2026-05-07 18:34 | 51.34141 | 7.30710 | 10051 ft | 291 kts | 248° |
| 2026-05-07 18:34 | 51.33383 | 7.27741 | 10052 ft | 286 kts | 248° |
| 2026-05-07 18:34 | 51.32630 | 7.24794 | 10061 ft | 286 kts | 248° |
| 2026-05-07 18:34 | 51.31882 | 7.21866 | 10053 ft | 286 kts | 248° |
| 2026-05-07 18:35 | 51.31136 | 7.18942 | 10049 ft | 286 kts | 248° |
| 2026-05-07 18:35 | 51.30387 | 7.16009 | 10058 ft | 286 kts | 248° |
| 2026-05-07 18:35 | 51.29627 | 7.13029 | 10052 ft | 286 kts | 248° |
| 2026-05-07 18:35 | 51.28885 | 7.10125 | 10041 ft | 286 kts | 248° |
| 2026-05-07 18:36 | 51.28124 | 7.07154 | 10021 ft | 284 kts | 248° |
| 2026-05-07 18:36 | 51.27388 | 7.04269 | 9708 ft | 282 kts | 248° |
| 2026-05-07 18:36 | 51.26646 | 7.01364 | 9253 ft | 283 kts | 248° |
| 2026-05-07 18:36 | 51.25909 | 6.98491 | 8857 ft | 282 kts | 248° |
| 2026-05-07 18:37 | 51.25166 | 6.95611 | 8456 ft | 280 kts | 248° |
| 2026-05-07 18:37 | 51.24428 | 6.92766 | 8081 ft | 279 kts | 248° |
| 2026-05-07 18:37 | 51.23686 | 6.89913 | 7615 ft | 275 kts | 249° |
| 2026-05-07 18:37 | 51.22883 | 6.87169 | 6966 ft | 276 kts | 240° |
| 2026-05-07 18:38 | 51.21803 | 6.84659 | 6289 ft | 276 kts | 234° |
| 2026-05-07 18:38 | 51.20647 | 6.82219 | 5711 ft | 277 kts | 233° |
| 2026-05-07 18:38 | 51.19486 | 6.79799 | 5332 ft | 275 kts | 233° |
| 2026-05-07 18:38 | 51.18318 | 6.77364 | 4965 ft | 273 kts | 233° |
| 2026-05-07 18:39 | 51.17182 | 6.74992 | 4597 ft | 272 kts | 233° |
| 2026-05-07 18:39 | 51.16031 | 6.72587 | 4235 ft | 271 kts | 233° |
| 2026-05-07 18:39 | 51.14895 | 6.70215 | 4019 ft | 263 kts | 233° |
| 2026-05-07 18:39 | 51.13817 | 6.67966 | 3856 ft | 255 kts | 233° |
| 2026-05-07 18:40 | 51.12743 | 6.65732 | 3694 ft | 247 kts | 233° |
| 2026-05-07 18:40 | 51.11714 | 6.63594 | 3534 ft | 239 kts | 233° |
| 2026-05-07 18:40 | 51.10716 | 6.61526 | 3292 ft | 237 kts | 233° |
| 2026-05-07 18:40 | 51.09897 | 6.59268 | 3004 ft | 233 kts | 258° |
| 2026-05-07 18:41 | 51.09932 | 6.56722 | 2972 ft | 231 kts | 292° |
| 2026-05-07 18:41 | 51.10804 | 6.54659 | 2972 ft | 227 kts | 324° |
| 2026-05-07 18:41 | 51.12235 | 6.53681 | 2974 ft | 224 kts | 354° |
| 2026-05-07 18:41 | 51.13790 | 6.53556 | 2976 ft | 223 kts | 2° |
| 2026-05-07 18:42 | 51.15338 | 6.53600 | 2973 ft | 223 kts | 3° |
| 2026-05-07 18:42 | 51.16880 | 6.53907 | 2959 ft | 220 kts | 22° |
| 2026-05-07 18:42 | 51.18137 | 6.55111 | 2957 ft | 203 kts | 42° |
| 2026-05-07 18:42 | 51.19064 | 6.56634 | 2986 ft | 182 kts | 49° |
| 2026-05-07 18:43 | 51.19860 | 6.58168 | 2785 ft | 176 kts | 51° |
| 2026-05-07 18:43 | 51.20602 | 6.59694 | 2543 ft | 170 kts | 52° |
| 2026-05-07 18:43 | 51.21301 | 6.61167 | 2317 ft | 167 kts | 53° |
| 2026-05-07 18:43 | 51.22004 | 6.62655 | 2096 ft | 166 kts | 53° |
| 2026-05-07 18:44 | 51.22691 | 6.64108 | 1881 ft | 164 kts | 53° |
| 2026-05-07 18:44 | 51.23373 | 6.65548 | 1654 ft | 160 kts | 53° |
| 2026-05-07 18:44 | 51.24012 | 6.66908 | 1449 ft | 146 kts | 53° |
| 2026-05-07 18:44 | 51.24598 | 6.68165 | 1222 ft | 134 kts | 53° |
| 2026-05-07 18:45 | 51.25145 | 6.69325 | 1002 ft | 130 kts | 52° |
| 2026-05-07 18:45 | 51.25712 | 6.70492 | 844 ft | 134 kts | 52° |
| 2026-05-07 18:45 | 51.26272 | 6.71657 | 738 ft | 133 kts | 53° |
| 2026-05-07 18:45 | 51.26844 | 6.72854 | 546 ft | 135 kts | 52° |
| 2026-05-07 18:46 | 51.27409 | 6.74036 | 368 ft | 132 kts | 53° |
| 2026-05-07 18:46 | 51.27955 | 6.75184 | 187 ft | 129 kts | 53° |
| 2026-05-07 18:46 | 51.28471 | 6.76276 | 122 ft | 109 kts | 53° |
| 2026-05-07 18:46 | 51.28830 | 6.77023 | 124 ft | 59 kts | 51° |
| 2026-05-07 18:47 | 51.28985 | 6.77348 | 123 ft | 25 kts | 53° |
| 2026-05-07 18:47 | 51.29033 | 6.77501 | 123 ft | 13 kts | 102° |
| 2026-05-07 18:47 | 51.28981 | 6.77597 | 123 ft | 7 kts | 142° |
| 2026-05-07 18:47 | 51.28944 | 6.77643 | 123 ft | 4 kts | 142° |
| 2026-05-07 18:48 | 51.28911 | 6.77654 | 123 ft | 5 kts | 212° |
| 2026-05-07 18:48 | 51.28881 | 6.77596 | 123 ft | 7 kts | 232° |
| 2026-05-07 18:48 | 51.28844 | 6.77520 | 123 ft | 9 kts | 232° |
| 2026-05-07 18:48 | 51.28798 | 6.77424 | 124 ft | 11 kts | 232° |
| 2026-05-07 18:49 | 51.28746 | 6.77317 | 125 ft | 12 kts | 232° |
| 2026-05-07 18:49 | 51.28688 | 6.77197 | 124 ft | 15 kts | 232° |
| 2026-05-07 18:49 | 51.28617 | 6.77051 | 124 ft | 16 kts | 233° |
| 2026-05-07 18:49 | 51.28545 | 6.76901 | 126 ft | 17 kts | 233° |
| 2026-05-07 18:50 | 51.28485 | 6.76781 | 126 ft | 9 kts | 215° |
| 2026-05-07 18:50 | 51.28422 | 6.76807 | 126 ft | 10 kts | 142° |
| 2026-05-07 18:50 | 51.28359 | 6.76867 | 127 ft | 10 kts | 170° |
| 2026-05-07 18:50 | 51.28283 | 6.76859 | 129 ft | 10 kts | 186° |
| 2026-05-07 18:51 | 51.28215 | 6.76848 | 131 ft | 9 kts | 186° |
| 2026-05-07 18:51 | 51.28155 | 6.76836 | 133 ft | 8 kts | 191° |
| 2026-05-07 18:51 | 51.28108 | 6.76814 | 134 ft | 3 kts | 211° |
| 2026-05-07 18:51 | 51.28104 | 6.76757 | 133 ft | 6 kts | 276° |
| 2026-05-07 18:52 | 51.28106 | 6.76726 | 132 ft | 0 kts | 274° |
| 2026-05-07 18:52 | 51.28106 | 6.76722 | 132 ft | 0 kts | 274° |